Akademic — LZDA — position and weather

sailwx.info

Track history (hours):
 
Tides and Currents Weather Stations Pressure Air Temp Water Temp Dewpoint Dewpoint Depression Visibility Wind Speed Wind Dir Waves Ship Positions

Oceanographic research ship Akademic (Bulgaria)

Detailed information on ship capabilities available from University of Delaware's Ocean Information Center.

Last reported at 2019-Jun-03 23:49 UTC. Time now 2019-Jun-19 15:59 UTC.
Position N 43°11' E 028°24'.
Warning: this ship's position is 15 days out of date.

Length 55 m; draft 4.8 m.

Type: Other ship. MMSI: 207038000.

Date/timePositionNaut miles runAvg speedWind from/ knotsBaromVisibWave heightAir tempDewpointWater temp
2019-Jun-03 23:49N 43°11' E 028°24'0 0.3
2019-Jun-03 22:18N 43°11' E 028°23'0 0.4
2019-Jun-03 21:40N 43°11' E 028°23'0 0.5
2019-Jun-03 20:57N 43°10' E 028°23'0 0.5
2019-Jun-03 20:29N 43°10' E 028°23'1 0.6
2019-Jun-03 19:12N 43°10' E 028°22'0 0.6
2019-Jun-03 19:00N 43°09' E 028°22'1 0.6
2019-Jun-03 18:12N 43°09' E 028°22'0 0.6
2019-Jun-03 17:59N 43°09' E 028°22'0 0.6
2019-Jun-03 17:30N 43°09' E 028°21'1 2.3
2019-Jun-03 17:00N 43°09' E 028°20'0 0.1
2019-Jun-03 16:30N 43°08' E 028°20'39 2.5
2019-Jun-03 01:00N 43°01' E 029°12'2 3.5
2019-Jun-03 00:29N 43°01' E 029°14'2 3.4
2019-Jun-03 00:00N 42°60' E 029°16'2 3.4
2019-Jun-02 23:30N 42°59' E 029°18'2 4.1
2019-Jun-02 23:00N 42°58' E 029°21'3 5.1
2019-Jun-02 22:30N 42°57' E 029°24'2 3.5
2019-Jun-02 22:00N 42°56' E 029°26'23 3.2
2019-Jun-02 14:58N 42°46' E 029°54'11 3.3
2019-Jun-02 11:42N 42°36' E 029°52'56 1.4
2019-May-31 19:48N 42°36' E 028°36'0 0.5
2019-May-31 19:30N 42°36' E 028°36'0 0.5
2019-May-31 19:00N 42°36' E 028°36'0 0.4
2019-May-31 18:30N 42°37' E 028°35'0 0.4
2019-May-31 17:49N 42°37' E 028°35'0 0.2
2019-May-31 17:30N 42°37' E 028°35'1 1.8
2019-May-31 17:00N 42°37' E 028°34'2 4.5
2019-May-31 16:30N 42°38' E 028°31'40 1.4
2019-May-30 11:14N 43°17' E 028°28'0 0.5
2019-May-30 10:47N 43°18' E 028°29'0 0.9
2019-May-30 10:29N 43°17' E 028°29'3 4.6
2019-May-30 09:52N 43°17' E 028°32'2 4.5
2019-May-30 09:30N 43°17' E 028°35'0 0.3
2019-May-30 09:00N 43°17' E 028°34'0 0.6
2019-May-30 08:30N 43°17' E 028°35'2 3.2
2019-May-30 08:00N 43°17' E 028°37'3 5.9
2019-May-30 07:30N 43°17' E 028°41'1 1.6
2019-May-30 07:00N 43°17' E 028°42'0 0.9
2019-May-30 06:30N 43°17' E 028°43'3 5.3
2019-May-30 06:00N 43°17' E 028°46'2 3.3
2019-May-30 05:30N 43°17' E 028°49'0 0.6
2019-May-30 05:00N 43°17' E 028°49'1 1.0
2019-May-30 03:59N 43°16' E 028°48'0 0.3
2019-May-30 03:30N 43°16' E 028°48'0 0.4
2019-May-30 03:00N 43°16' E 028°49'0 0.4
2019-May-30 02:30N 43°16' E 028°49'0 0.3
2019-May-30 02:00N 43°16' E 028°49'0 0.3
2019-May-30 01:30N 43°16' E 028°49'0 0.2
2019-May-30 01:00N 43°16' E 028°49'0 0.2
2019-May-30 00:30N 43°17' E 028°49'0 0.4
2019-May-30 00:00N 43°17' E 028°50'0 0.4
2019-May-29 23:30N 43°17' E 028°50'0 0.3
2019-May-29 23:00N 43°17' E 028°50'0 0.3
2019-May-29 22:23N 43°17' E 028°50'1 0.2
2019-May-29 19:19N 43°16' E 028°51'0 0.4
2019-May-29 19:00N 43°16' E 028°51'2 3.3
2019-May-29 18:30N 43°17' E 028°54'2 4.5
2019-May-29 18:00N 43°19' E 028°54'3 5.2
2019-May-29 17:30N 43°20' E 028°57'2 4.9
2019-May-29 17:00N 43°22' E 028°60'0 0.4
2019-May-29 16:31N 43°22' E 029°00'3 5.1
2019-May-29 16:00N 43°19' E 029°01'2 4.9
2019-May-29 15:30N 43°17' E 029°01'0 0.5
2019-May-29 15:00N 43°17' E 029°01'0 0.6
2019-May-29 14:31N 43°17' E 029°00'3 5.2
2019-May-29 14:00N 43°17' E 029°04'1 2.3
2019-May-29 13:30N 43°17' E 029°05'0 0.1
2019-May-29 13:00N 43°17' E 029°05'2 4.1
2019-May-29 12:28N 43°16' E 029°08'3 5.8
2019-May-29 11:53N 43°16' E 029°13'0 0.4
2019-May-29 10:57N 43°16' E 029°13'3 3.1
2019-May-29 09:53N 43°16' E 029°18'3 3.2
2019-May-29 09:02N 43°16' E 029°21'0 1.5
2019-May-29 08:54N 43°16' E 029°22'0 0.6
2019-May-29 08:30N 43°16' E 029°22'3 5.6
2019-May-29 07:57N 43°15' E 029°26'2 3.5
2019-May-29 07:30N 43°15' E 029°28'1 1.5
2019-May-29 07:00N 43°15' E 029°29'1 2.3
2019-May-29 06:30N 43°15' E 029°31'3 5.9
2019-May-29 06:00N 43°15' E 029°35'1 1.8
2019-May-29 05:30N 43°15' E 029°36'1 1.3
2019-May-29 05:00N 43°16' E 029°37'0 0.9
2019-May-29 04:30N 43°16' E 029°38'2 3.6
2019-May-29 04:00N 43°15' E 029°36'2 3.9
2019-May-29 03:30N 43°14' E 029°33'2 3.8
2019-May-29 03:00N 43°13' E 029°31'2 3.4
2019-May-29 02:30N 43°12' E 029°29'1 1.1
2019-May-29 02:00N 43°12' E 029°29'1 1.1
2019-May-29 01:28N 43°13' E 029°30'1 1.1
2019-May-29 00:59N 43°13' E 029°31'0 0.9
2019-May-29 00:28N 43°13' E 029°31'0 0.9
2019-May-28 23:58N 43°14' E 029°32'0 0.8
2019-May-28 23:30N 43°14' E 029°32'0 0.8
2019-May-28 23:00N 43°14' E 029°33'0 0.8
2019-May-28 22:30N 43°14' E 029°33'0 0.8
2019-May-28 22:00N 43°14' E 029°34'0 0.9
2019-May-28 21:30N 43°14' E 029°34'0 0.9
2019-May-28 21:00N 43°14' E 029°35'1 1.1
2019-May-28 20:30N 43°15' E 029°36'1 1.2
2019-May-28 20:00N 43°15' E 029°37'1 1.3
2019-May-28 19:30N 43°15' E 029°37'1 1.3
2019-May-28 18:58N 43°15' E 029°38'1 1.4
2019-May-28 18:30N 43°15' E 029°39'1 1.3
2019-May-28 17:59N 43°15' E 029°40'1 1.3
2019-May-28 17:30N 43°15' E 029°41'1 1.3
2019-May-28 17:00N 43°15' E 029°42'1 1.3
2019-May-28 16:30N 43°15' E 029°43'1 1.3
2019-May-28 16:00N 43°15' E 029°44'1 1.2
2019-May-28 15:30N 43°15' E 029°44'1 1.1
2019-May-28 15:00N 43°15' E 029°45'1 1.0
2019-May-28 14:30N 43°15' E 029°46'3 5.8
2019-May-28 14:00N 43°16' E 029°50'2 3.3
2019-May-28 13:19N 43°15' E 029°53'0 1.1
2019-May-28 13:00N 43°15' E 029°53'2 5.0
2019-May-28 12:30N 43°15' E 029°57'3 6.0
2019-May-28 12:00N 43°15' E 030°01'0 0.9
2019-May-28 11:30N 43°15' E 030°01'1 2.8
2019-May-28 11:00N 43°15' E 030°03'4 5.8
2019-May-28 10:23N 43°15' E 030°08'1 1.7
2019-May-28 09:53N 43°15' E 030°09'18 3.8
2019-May-28 05:13N 43°14' E 030°33'0 1.6
2019-May-28 04:57N 43°14' E 030°34'1 1.5
2019-May-28 04:30N 43°14' E 030°35'2 2.9
2019-May-28 03:53N 43°16' E 030°35'3 4.6
2019-May-28 03:17N 43°19' E 030°35'1 5.1
2019-May-28 03:00N 43°20' E 030°36'31 3.7
2019-May-27 18:27N 43°47' E 030°57'2 3.8
2019-May-27 18:00N 43°49' E 030°58'2 3.7
2019-May-27 17:30N 43°50' E 030°59'2 3.7
2019-May-27 17:00N 43°52' E 031°00'1 2.9
2019-May-27 16:30N 43°53' E 031°01'0 0.8
2019-May-27 16:00N 43°54' E 031°01'1 1.1
2019-May-27 15:30N 43°54' E 031°01'0 0.7
2019-May-27 15:00N 43°55' E 031°01'1 1.1
2019-May-27 14:23N 43°55' E 030°60'2 5.9
2019-May-27 14:00N 43°55' E 030°57'2 4.7
2019-May-27 13:30N 43°55' E 030°53'0 0.6
2019-May-27 13:00N 43°55' E 030°53'2 4.3
2019-May-27 12:30N 43°55' E 030°50'3 6.3
2019-May-27 12:00N 43°56' E 030°46'1 1.4
2019-May-27 11:29N 43°56' E 030°45'1 1.4
2019-May-27 10:52N 43°56' E 030°44'5 6.1
2019-May-27 10:03N 43°57' E 030°37'0 0.7
2019-May-27 09:53N 43°56' E 030°37'0 0.5
2019-May-27 09:30N 43°56' E 030°36'0 0.9
2019-May-27 09:00N 43°56' E 030°36'3 4.7
2019-May-27 08:22N 43°56' E 030°32'2 6.0
2019-May-27 08:00N 43°57' E 030°29'1 2.0
2019-May-27 07:30N 43°57' E 030°28'0 0.5
2019-May-27 07:00N 43°56' E 030°28'2 4.2
2019-May-27 06:30N 43°55' E 030°26'4 5.1
2019-May-27 05:47N 43°56' E 030°21'0 0.1
2019-May-27 04:42N 43°56' E 030°20'0 0.6
2019-May-27 04:27N 43°56' E 030°20'2 4.2
2019-May-27 03:59N 43°58' E 030°21'0 0.2
2019-May-27 03:30N 43°58' E 030°21'0 0.3
2019-May-27 03:00N 43°58' E 030°20'0 0.4
2019-May-27 02:30N 43°58' E 030°20'0 0.4
2019-May-27 01:57N 43°58' E 030°20'0 0.4
2019-May-27 01:28N 43°58' E 030°19'30 1.5
2019-May-26 05:51N 43°58' E 029°38'1 1.1
2019-May-26 05:21N 43°58' E 029°39'0 0.4
2019-May-26 04:21N 43°58' E 029°39'2 5.2
2019-May-26 03:57N 43°58' E 029°42'4 5.7
2019-May-26 03:18N 43°58' E 029°47'1 1.7
2019-May-26 02:59N 43°58' E 029°48'0 0.3
2019-May-26 02:00N 43°58' E 029°48'0 0.5
2019-May-26 01:30N 43°58' E 029°47'1 0.5
2019-May-26 00:30N 43°59' E 029°47'15 1.4
2019-May-25 14:04N 43°58' E 029°26'0 5.8
2019-May-25 14:00N 43°58' E 029°26'1 2.2
2019-May-25 13:20N 43°57' E 029°24'1 2.5
2019-May-25 13:00N 43°58' E 029°23'3 5.4
2019-May-25 12:30N 43°57' E 029°19'2 3.9
2019-May-25 12:00N 43°57' E 029°16'0 0.6
2019-May-25 11:30N 43°58' E 029°16'2 4.6
2019-May-25 11:00N 43°57' E 029°13'3 5.3
2019-May-25 10:30N 43°57' E 029°09'2 3.2
2019-May-25 10:00N 43°57' E 029°07'0 0.3
2019-May-25 09:30N 43°58' E 029°07'3 5.6
2019-May-25 09:00N 43°57' E 029°03'3 5.7
2019-May-25 08:31N 43°57' E 028°59'1 1.1
2019-May-25 08:00N 43°58' E 028°59'2 4.0
2019-May-25 07:30N 43°57' E 028°57'3 6.0
2019-May-25 07:00N 43°57' E 028°52'1 2.1
2019-May-25 06:30N 43°58' E 028°51'1 2.2
2019-May-25 06:00N 43°58' E 028°50'3 6.2
2019-May-25 05:30N 43°58' E 028°45'1 1.0
2019-May-25 05:00N 43°58' E 028°45'0 0.5
2019-May-25 04:30N 43°58' E 028°45'1 1.2
2019-May-25 04:00N 43°58' E 028°45'2 3.6
2019-May-25 03:30N 43°58' E 028°48'2 3.8
2019-May-25 03:00N 43°58' E 028°50'2 3.8
2019-May-25 02:30N 43°60' E 028°52'2 4.2
2019-May-25 02:00N 44°02' E 028°54'2 4.4
2019-May-25 01:30N 44°04' E 028°55'2 4.3
2019-May-25 01:00N 44°06' E 028°56'2 4.2
2019-May-25 00:30N 44°08' E 028°58'2 4.2
2019-May-25 00:00N 44°09' E 028°59'  
Track history (hours):
 
Tides and Currents Weather Stations Pressure Air Temp Water Temp Dewpoint Dewpoint Depression Visibility Wind Speed Wind Dir Waves Ship Positions

Oceanographic research ship Akademic (Bulgaria)

Detailed information on ship capabilities available from University of Delaware's Ocean Information Center.

Last reported at 2019-Jun-03 23:49 UTC. Time now 2019-Jun-19 15:59 UTC.
Position N 43°11' E 028°24'.
Warning: this ship's position is 15 days out of date.

Length 55 m; draft 4.8 m.

Type: Other ship. MMSI: 207038000.

Date/timePositionNaut miles runAvg speedWind from/ knotsBaromVisibWave heightAir tempDewpointWater temp
2019-Jun-03 23:49N 43°11' E 028°24'0 0.3
2019-Jun-03 22:18N 43°11' E 028°23'0 0.4
2019-Jun-03 21:40N 43°11' E 028°23'0 0.5
2019-Jun-03 20:57N 43°10' E 028°23'0 0.5
2019-Jun-03 20:29N 43°10' E 028°23'1 0.6
2019-Jun-03 19:12N 43°10' E 028°22'0 0.6
2019-Jun-03 19:00N 43°09' E 028°22'1 0.6
2019-Jun-03 18:12N 43°09' E 028°22'0 0.6
2019-Jun-03 17:59N 43°09' E 028°22'0 0.6
2019-Jun-03 17:30N 43°09' E 028°21'1 2.3
2019-Jun-03 17:00N 43°09' E 028°20'0 0.1
2019-Jun-03 16:30N 43°08' E 028°20'39 2.5
2019-Jun-03 01:00N 43°01' E 029°12'2 3.5
2019-Jun-03 00:29N 43°01' E 029°14'2 3.4
2019-Jun-03 00:00N 42°60' E 029°16'2 3.4
2019-Jun-02 23:30N 42°59' E 029°18'2 4.1
2019-Jun-02 23:00N 42°58' E 029°21'3 5.1
2019-Jun-02 22:30N 42°57' E 029°24'2 3.5
2019-Jun-02 22:00N 42°56' E 029°26'23 3.2
2019-Jun-02 14:58N 42°46' E 029°54'11 3.3
2019-Jun-02 11:42N 42°36' E 029°52'56 1.4
2019-May-31 19:48N 42°36' E 028°36'0 0.5
2019-May-31 19:30N 42°36' E 028°36'0 0.5
2019-May-31 19:00N 42°36' E 028°36'0 0.4
2019-May-31 18:30N 42°37' E 028°35'0 0.4
2019-May-31 17:49N 42°37' E 028°35'0 0.2
2019-May-31 17:30N 42°37' E 028°35'1 1.8
2019-May-31 17:00N 42°37' E 028°34'2 4.5
2019-May-31 16:30N 42°38' E 028°31'40 1.4
2019-May-30 11:14N 43°17' E 028°28'0 0.5
2019-May-30 10:47N 43°18' E 028°29'0 0.9
2019-May-30 10:29N 43°17' E 028°29'3 4.6
2019-May-30 09:52N 43°17' E 028°32'2 4.5
2019-May-30 09:30N 43°17' E 028°35'0 0.3
2019-May-30 09:00N 43°17' E 028°34'0 0.6
2019-May-30 08:30N 43°17' E 028°35'2 3.2
2019-May-30 08:00N 43°17' E 028°37'3 5.9
2019-May-30 07:30N 43°17' E 028°41'1 1.6
2019-May-30 07:00N 43°17' E 028°42'0 0.9
2019-May-30 06:30N 43°17' E 028°43'3 5.3
2019-May-30 06:00N 43°17' E 028°46'2 3.3
2019-May-30 05:30N 43°17' E 028°49'0 0.6
2019-May-30 05:00N 43°17' E 028°49'1 1.0
2019-May-30 03:59N 43°16' E 028°48'0 0.3
2019-May-30 03:30N 43°16' E 028°48'0 0.4
2019-May-30 03:00N 43°16' E 028°49'0 0.4
2019-May-30 02:30N 43°16' E 028°49'0 0.3
2019-May-30 02:00N 43°16' E 028°49'0 0.3
2019-May-30 01:30N 43°16' E 028°49'0 0.2
2019-May-30 01:00N 43°16' E 028°49'0 0.2
2019-May-30 00:30N 43°17' E 028°49'0 0.4
2019-May-30 00:00N 43°17' E 028°50'0 0.4
2019-May-29 23:30N 43°17' E 028°50'0 0.3
2019-May-29 23:00N 43°17' E 028°50'0 0.3
2019-May-29 22:23N 43°17' E 028°50'1 0.2
2019-May-29 19:19N 43°16' E 028°51'0 0.4
2019-May-29 19:00N 43°16' E 028°51'2 3.3
2019-May-29 18:30N 43°17' E 028°54'2 4.5
2019-May-29 18:00N 43°19' E 028°54'3 5.2
2019-May-29 17:30N 43°20' E 028°57'2 4.9
2019-May-29 17:00N 43°22' E 028°60'0 0.4
2019-May-29 16:31N 43°22' E 029°00'3 5.1
2019-May-29 16:00N 43°19' E 029°01'2 4.9
2019-May-29 15:30N 43°17' E 029°01'0 0.5
2019-May-29 15:00N 43°17' E 029°01'0 0.6
2019-May-29 14:31N 43°17' E 029°00'3 5.2
2019-May-29 14:00N 43°17' E 029°04'1 2.3
2019-May-29 13:30N 43°17' E 029°05'0 0.1
2019-May-29 13:00N 43°17' E 029°05'2 4.1
2019-May-29 12:28N 43°16' E 029°08'3 5.8
2019-May-29 11:53N 43°16' E 029°13'0 0.4
2019-May-29 10:57N 43°16' E 029°13'3 3.1
2019-May-29 09:53N 43°16' E 029°18'3 3.2
2019-May-29 09:02N 43°16' E 029°21'0 1.5
2019-May-29 08:54N 43°16' E 029°22'0 0.6
2019-May-29 08:30N 43°16' E 029°22'3 5.6
2019-May-29 07:57N 43°15' E 029°26'2 3.5
2019-May-29 07:30N 43°15' E 029°28'1 1.5
2019-May-29 07:00N 43°15' E 029°29'1 2.3
2019-May-29 06:30N 43°15' E 029°31'3 5.9
2019-May-29 06:00N 43°15' E 029°35'1 1.8
2019-May-29 05:30N 43°15' E 029°36'1 1.3
2019-May-29 05:00N 43°16' E 029°37'0 0.9
2019-May-29 04:30N 43°16' E 029°38'2 3.6
2019-May-29 04:00N 43°15' E 029°36'2 3.9
2019-May-29 03:30N 43°14' E 029°33'2 3.8
2019-May-29 03:00N 43°13' E 029°31'2 3.4
2019-May-29 02:30N 43°12' E 029°29'1 1.1
2019-May-29 02:00N 43°12' E 029°29'1 1.1
2019-May-29 01:28N 43°13' E 029°30'1 1.1
2019-May-29 00:59N 43°13' E 029°31'0 0.9
2019-May-29 00:28N 43°13' E 029°31'0 0.9
2019-May-28 23:58N 43°14' E 029°32'0 0.8
2019-May-28 23:30N 43°14' E 029°32'0 0.8
2019-May-28 23:00N 43°14' E 029°33'0 0.8
2019-May-28 22:30N 43°14' E 029°33'0 0.8
2019-May-28 22:00N 43°14' E 029°34'0 0.9
2019-May-28 21:30N 43°14' E 029°34'0 0.9
2019-May-28 21:00N 43°14' E 029°35'1 1.1
2019-May-28 20:30N 43°15' E 029°36'1 1.2
2019-May-28 20:00N 43°15' E 029°37'1 1.3
2019-May-28 19:30N 43°15' E 029°37'1 1.3
2019-May-28 18:58N 43°15' E 029°38'1 1.4
2019-May-28 18:30N 43°15' E 029°39'1 1.3
2019-May-28 17:59N 43°15' E 029°40'1 1.3
2019-May-28 17:30N 43°15' E 029°41'1 1.3
2019-May-28 17:00N 43°15' E 029°42'1 1.3
2019-May-28 16:30N 43°15' E 029°43'1 1.3
2019-May-28 16:00N 43°15' E 029°44'1 1.2
2019-May-28 15:30N 43°15' E 029°44'1 1.1
2019-May-28 15:00N 43°15' E 029°45'1 1.0
2019-May-28 14:30N 43°15' E 029°46'3 5.8
2019-May-28 14:00N 43°16' E 029°50'2 3.3
2019-May-28 13:19N 43°15' E 029°53'0 1.1
2019-May-28 13:00N 43°15' E 029°53'2 5.0
2019-May-28 12:30N 43°15' E 029°57'3 6.0
2019-May-28 12:00N 43°15' E 030°01'0 0.9
2019-May-28 11:30N 43°15' E 030°01'1 2.8
2019-May-28 11:00N 43°15' E 030°03'4 5.8
2019-May-28 10:23N 43°15' E 030°08'1 1.7
2019-May-28 09:53N 43°15' E 030°09'18 3.8
2019-May-28 05:13N 43°14' E 030°33'0 1.6
2019-May-28 04:57N 43°14' E 030°34'1 1.5
2019-May-28 04:30N 43°14' E 030°35'2 2.9
2019-May-28 03:53N 43°16' E 030°35'3 4.6
2019-May-28 03:17N 43°19' E 030°35'1 5.1
2019-May-28 03:00N 43°20' E 030°36'31 3.7
2019-May-27 18:27N 43°47' E 030°57'2 3.8
2019-May-27 18:00N 43°49' E 030°58'2 3.7
2019-May-27 17:30N 43°50' E 030°59'2 3.7
2019-May-27 17:00N 43°52' E 031°00'1 2.9
2019-May-27 16:30N 43°53' E 031°01'0 0.8
2019-May-27 16:00N 43°54' E 031°01'1 1.1
2019-May-27 15:30N 43°54' E 031°01'0 0.7
2019-May-27 15:00N 43°55' E 031°01'1 1.1
2019-May-27 14:23N 43°55' E 030°60'2 5.9
2019-May-27 14:00N 43°55' E 030°57'2 4.7
2019-May-27 13:30N 43°55' E 030°53'0 0.6
2019-May-27 13:00N 43°55' E 030°53'2 4.3
2019-May-27 12:30N 43°55' E 030°50'3 6.3
2019-May-27 12:00N 43°56' E 030°46'1 1.4
2019-May-27 11:29N 43°56' E 030°45'1 1.4
2019-May-27 10:52N 43°56' E 030°44'5 6.1
2019-May-27 10:03N 43°57' E 030°37'0 0.7
2019-May-27 09:53N 43°56' E 030°37'0 0.5
2019-May-27 09:30N 43°56' E 030°36'0 0.9
2019-May-27 09:00N 43°56' E 030°36'3 4.7
2019-May-27 08:22N 43°56' E 030°32'2 6.0
2019-May-27 08:00N 43°57' E 030°29'1 2.0
2019-May-27 07:30N 43°57' E 030°28'0 0.5
2019-May-27 07:00N 43°56' E 030°28'2 4.2
2019-May-27 06:30N 43°55' E 030°26'4 5.1
2019-May-27 05:47N 43°56' E 030°21'0 0.1
2019-May-27 04:42N 43°56' E 030°20'0 0.6
2019-May-27 04:27N 43°56' E 030°20'2 4.2
2019-May-27 03:59N 43°58' E 030°21'0 0.2
2019-May-27 03:30N 43°58' E 030°21'0 0.3
2019-May-27 03:00N 43°58' E 030°20'0 0.4
2019-May-27 02:30N 43°58' E 030°20'0 0.4
2019-May-27 01:57N 43°58' E 030°20'0 0.4
2019-May-27 01:28N 43°58' E 030°19'30 1.5
2019-May-26 05:51N 43°58' E 029°38'1 1.1
2019-May-26 05:21N 43°58' E 029°39'0 0.4
2019-May-26 04:21N 43°58' E 029°39'2 5.2
2019-May-26 03:57N 43°58' E 029°42'4 5.7
2019-May-26 03:18N 43°58' E 029°47'1 1.7
2019-May-26 02:59N 43°58' E 029°48'0 0.3
2019-May-26 02:00N 43°58' E 029°48'0 0.5
2019-May-26 01:30N 43°58' E 029°47'1 0.5
2019-May-26 00:30N 43°59' E 029°47'15 1.4
2019-May-25 14:04N 43°58' E 029°26'0 5.8
2019-May-25 14:00N 43°58' E 029°26'1 2.2
2019-May-25 13:20N 43°57' E 029°24'1 2.5
2019-May-25 13:00N 43°58' E 029°23'3 5.4
2019-May-25 12:30N 43°57' E 029°19'2 3.9
2019-May-25 12:00N 43°57' E 029°16'0 0.6
2019-May-25 11:30N 43°58' E 029°16'2 4.6
2019-May-25 11:00N 43°57' E 029°13'3 5.3
2019-May-25 10:30N 43°57' E 029°09'2 3.2
2019-May-25 10:00N 43°57' E 029°07'0 0.3
2019-May-25 09:30N 43°58' E 029°07'3 5.6
2019-May-25 09:00N 43°57' E 029°03'3 5.7
2019-May-25 08:31N 43°57' E 028°59'1 1.1
2019-May-25 08:00N 43°58' E 028°59'2 4.0
2019-May-25 07:30N 43°57' E 028°57'3 6.0
2019-May-25 07:00N 43°57' E 028°52'1 2.1
2019-May-25 06:30N 43°58' E 028°51'1 2.2
2019-May-25 06:00N 43°58' E 028°50'3 6.2
2019-May-25 05:30N 43°58' E 028°45'1 1.0
2019-May-25 05:00N 43°58' E 028°45'0 0.5
2019-May-25 04:30N 43°58' E 028°45'1 1.2
2019-May-25 04:00N 43°58' E 028°45'2 3.6
2019-May-25 03:30N 43°58' E 028°48'2 3.8
2019-May-25 03:00N 43°58' E 028°50'2 3.8
2019-May-25 02:30N 43°60' E 028°52'2 4.2
2019-May-25 02:00N 44°02' E 028°54'2 4.4
2019-May-25 01:30N 44°04' E 028°55'2 4.3
2019-May-25 01:00N 44°06' E 028°56'2 4.2
2019-May-25 00:30N 44°08' E 028°58'2 4.2
2019-May-25 00:00N 44°09' E 028°59'  

Dump ship's entire track history